Prestwick, Alabama
Current Conditions -  °F | °C
As of 5:53 AM on Monday 24 Nov 2014 (Local Time) from KGZH Reporting Station
Clear Clear  
Wind Chill: 66°   Ceiling: Unl
Heat Index: 66°   Visibility: 7mi
Dew Point: 64°   Wind: 6mph
Humidity: 93%   Direction: 250°WSW
Pressure: 29.79"   Gusts: NA
Location:  31.4775°N, 87.9599°W
Report Text: KGZH 241153Z AUTO 25005KT 7SM CLR 19/18 A2979 RMK AO2 SLP085 70052 T01890178 10194 20172 53010
Loading
Personal Weather Stations






























Interactive Weather Map New forecast layout! Learn more

10-Day Weather Forecast

Advertisements
Track Severe Weather on mobile